Flughafen Lahr

Aus VATSIM Germany
Dies ist die bestätigte sowie die neueste Version dieser Seite.
Wechseln zu:Navigation, Suche
UnderCon icon.svg.pngDieser Artikel ist noch im Aufbau. Der Artikel kann daher unvollständig sein oder Fehler enthalten!


Lahr Airport
ICAO / IATA EDTL / LHA
Koordinaten N48°22′9″  E007°49′40″
Höhe 156 m / 511 ft
Wetter EDTL 171450Z 01006KT 330V050 CAVOK 21/12 Q1015
Pisten
Platzfrequenzen
Nur für Flugsimulationszwecke!



Informationen für Piloten und Lotsen
Pilotenbriefing

Standard Operating Procedures (SOP)

Letters of Agreement (LoAs)

Vorlage:Chartbox